Observation data for Goodlett on 02/23/2021      Previous  Date  Next       Current Mesonet Observations  Soil Data  Daily Summary Page  Observations in Plain Language
KGDS 230600Z 34006KT 08/M03 A3005 RMK A01 T00811029  RH  046%=      5-min Rain = 0
KGDS 230605Z 35007KT 07/M03 A3005 RMK A01 T00691026  RH  051%=      5-min Rain = 0
KGDS 230610Z 35008KT 07/M02 A3005 RMK A01 T00691024  RH  052%=      5-min Rain = 0
KGDS 230615Z 35009KT 07/M02 A3005 RMK A01 T00671022  RH  054%=      5-min Rain = 0
KGDS 230620Z 35010KT 06/M02 A3005 RMK A01 T00641022  RH  055%=      5-min Rain = 0
KGDS 230625Z 35008KT 06/M02 A3005 RMK A01 T00621023  RH  055%=      5-min Rain = 0
KGDS 230630Z 00008KT 06/M02 A3004 RMK A01 T00631023  RH  054%=      5-min Rain = 0
KGDS 230635Z 36007KT 06/M02 A3005 RMK A01 T00621023  RH  055%=      5-min Rain = 0
KGDS 230640Z 36007KT 07/M03 A3005 RMK A01 T00681025  RH  052%=      5-min Rain = 0
KGDS 230645Z 00007KT 07/M03 A3005 RMK A01 T00701026  RH  051%=      5-min Rain = 0
KGDS 230650Z 01006KT 08/M03 A3004 RMK A01 T00771028  RH  047%=      5-min Rain = 0
KGDS 230655Z 01007KT 08/M03 A3004 RMK A01 T00781029  RH  047%=      5-min Rain = 0
KGDS 230700Z 01006KT 08/M03 A3004 RMK A01 T00761030  RH  047%=      5-min Rain = 0
KGDS 230705Z 01006KT 08/M03 A3004 RMK A01 T00831033  RH  044%=      5-min Rain = 0
KGDS 230710Z 00006KT 09/M03 A3004 RMK A01 T00851033  RH  043%=      5-min Rain = 0
KGDS 230715Z 00006KT 08/M03 A3004 RMK A01 T00841033  RH  044%=      5-min Rain = 0
KGDS 230720Z 00005KT 09/M03 A3004 RMK A01 T00851034  RH  043%=      5-min Rain = 0
KGDS 230725Z 10004KT 07/M03 A3004 RMK A01 T00721031  RH  048%=      5-min Rain = 0
KGDS 230730Z 11003KT 06/M03 A3004 RMK A01 T00581027  RH  055%=      5-min Rain = 0
KGDS 230735Z 08002KT 04/M03 A3004 RMK A01 T00441028  RH  060%=      5-min Rain = 0
KGDS 230740Z 04002KT 05/M03 A3004 RMK A01 T00501028  RH  057%=      5-min Rain = 0
KGDS 230745Z 03001KT 05/M03 A3004 RMK A01 T00471028  RH  059%=      5-min Rain = 0
KGDS 230750Z 01003KT 05/M03 A3004 RMK A01 T00491027  RH  058%=      5-min Rain = 0
KGDS 230755Z 34004KT 06/M03 A3004 RMK A01 T00571031  RH  054%=      5-min Rain = 0
KGDS 230800Z 32006KT 05/M03 A3004 RMK A01 T00511030  RH  056%=      5-min Rain = 0
KGDS 230805Z 31006KT 04/M03 A3003 RMK A01 T00441032  RH  058%=      5-min Rain = 0
KGDS 230810Z 33006KT 04/M03 A3003 RMK A01 T00381033  RH  060%=      5-min Rain = 0
KGDS 230815Z 33008KT 03/M03 A3003 RMK A01 T00341031  RH  063%=      5-min Rain = 0
KGDS 230820Z 32008KT 03/M03 A3003 RMK A01 T00321025  RH  067%=      5-min Rain = 0
KGDS 230825Z 32008KT 03/M02 A3003 RMK A01 T00341024  RH  066%=      5-min Rain = 0
KGDS 230830Z 24005KT 03/M03 A3003 RMK A01 T00301025  RH  068%=      5-min Rain = 0
KGDS 230835Z 27003KT 04/M03 A3002 RMK A01 T00361025  RH  065%=      5-min Rain = 0
KGDS 230840Z 31005KT 03/M03 A3002 RMK A01 T00291026  RH  067%=      5-min Rain = 0
KGDS 230845Z 32007KT 03/M03 A3002 RMK A01 T00341026  RH  065%=      5-min Rain = 0
KGDS 230850Z 32008KT 03/M03 A3002 RMK A01 T00341026  RH  065%=      5-min Rain = 0
KGDS 230855Z 31008KT 04/M02 A3002 RMK A01 T00361024  RH  065%=      5-min Rain = 0
KGDS 230900Z 24005KT 03/M03 A3002 RMK A01 T00291026  RH  068%=      5-min Rain = 0
KGDS 230905Z 22005KT 02/M03 A3002 RMK A01 T00151026  RH  075%=      5-min Rain = 0
KGDS 230910Z 25005KT 01/M03 A3002 RMK A01 T00101029  RH  076%=      5-min Rain = 0
KGDS 230915Z 28006KT 01/M03 A3002 RMK A01 T00091028  RH  077%=      5-min Rain = 0
KGDS 230920Z 31009KT 02/M02 A3002 RMK A01 T00181023  RH  075%=      5-min Rain = 0
KGDS 230925Z 32009KT 03/M02 A3001 RMK A01 T00271023  RH  070%=      5-min Rain = 0
KGDS 230930Z 32009KT 03/M02 A3001 RMK A01 T00331023  RH  067%=      5-min Rain = 0
KGDS 230935Z 30007KT 04/M02 A3001 RMK A01 T00361023  RH  066%=      5-min Rain = 0
KGDS 230940Z 28005KT 03/M03 A3002 RMK A01 T00341025  RH  066%=      5-min Rain = 0
KGDS 230945Z 28006KT 03/M03 A3002 RMK A01 T00341026  RH  065%=      5-min Rain = 0
KGDS 230950Z 29006KT 03/M03 A3002 RMK A01 T00311027  RH  066%=      5-min Rain = 0
KGDS 230955Z 30006KT 03/M03 A3002 RMK A01 T00301027  RH  066%=      5-min Rain = 0
KGDS 231000Z 30006KT 03/M03 A3002 RMK A01 T00311028  RH  065%=      5-min Rain = 0
KGDS 231005Z 29005KT 03/M03 A3002 RMK A01 T00261029  RH  067%=      5-min Rain = 0
KGDS 231010Z 32007KT 03/M03 A3001 RMK A01 T00281028  RH  067%=      5-min Rain = 0
KGDS 231015Z 26006G11KT 02/M03 A3001 RMK A01 T00221030  RH  069%=      5-min Rain = 0
KGDS 231020Z 24005KT 01/M03 A3001 RMK A01 T00071034  RH  075%=      5-min Rain = 0
KGDS 231025Z 22006KT M00/M04 A3001 RMK A01 T10041036  RH  079%=      5-min Rain = 0
KGDS 231030Z 24006KT M01/M04 A3001 RMK A01 T10101036  RH  083%=      5-min Rain = 0
KGDS 231035Z 26005KT M01/M03 A3001 RMK A01 T10081034  RH  083%=      5-min Rain = 0
KGDS 231040Z 28005KT M00/M03 A3001 RMK A01 T10021032  RH  081%=      5-min Rain = 0
KGDS 231045Z 27006KT 01/M03 A3001 RMK A01 T00071031  RH  076%=      5-min Rain = 0
KGDS 231050Z 27007KT 00/M03 A3002 RMK A01 T00041033  RH  077%=      5-min Rain = 0
KGDS 231055Z 28008KT 01/M03 A3001 RMK A01 T00051031  RH  077%=      5-min Rain = 0
KGDS 231100Z 28008KT 01/M03 A3001 RMK A01 T00111028  RH  076%=      5-min Rain = 0
KGDS 231105Z 28007KT 01/M03 A3001 RMK A01 T00061031  RH  077%=      5-min Rain = 0
KGDS 231110Z 25007KT 01/M03 A3001 RMK A01 T00111032  RH  074%=      5-min Rain = 0
KGDS 231115Z 28007KT 01/M03 A3001 RMK A01 T00051032  RH  077%=      5-min Rain = 0
KGDS 231120Z 27007KT M00/M03 A3001 RMK A01 T10011033  RH  079%=      5-min Rain = 0
KGDS 231125Z 25006KT M00/M03 A3001 RMK A01 T10021034  RH  079%=      5-min Rain = 0
KGDS 231130Z 28007KT M00/M03 A3001 RMK A01 T10031033  RH  081%=      5-min Rain = 0
KGDS 231135Z 29009KT 01/M03 A3001 RMK A01 T00051029  RH  079%=      5-min Rain = 0
KGDS 231140Z 30008KT 01/M03 A3001 RMK A01 T00131027  RH  075%=      5-min Rain = 0
KGDS 231145Z 28007KT 02/M03 A3001 RMK A01 T00211028  RH  071%=      5-min Rain = 0
KGDS 231150Z 27006KT 02/M03 A3001 RMK A01 T00221030  RH  069%=      5-min Rain = 0
KGDS 231155Z 24006KT 01/M03 A3001 RMK A01 T00141034  RH  071%=      5-min Rain = 0
KGDS 231200Z 26006KT M00/M04 A3001 RMK A01 T10011035  RH  078%=      5-min Rain = 0
KGDS 231205Z 28006KT 00/03 A3001 RMK A01 T00000-32  RH  080%=      5-min Rain = 0
KGDS 231210Z 28007KT 01/M03 A3001 RMK A01 T00091030  RH  075%=      5-min Rain = 0
KGDS 231215Z 28008KT 01/M03 A3001 RMK A01 T00111031  RH  074%=      5-min Rain = 0
KGDS 231220Z 30009KT 01/M03 A30 RMK A01 T00141030  RH  073%=      5-min Rain = 0
KGDS 231225Z 31011KT 02/M03 A30 RMK A01 T00231028  RH  070%=      5-min Rain = 0
KGDS 231230Z 30011KT 03/M03 A30 RMK A01 T00261029  RH  068%=      5-min Rain = 0
KGDS 231235Z 30011KT 03/M03 A30 RMK A01 T00271029  RH  067%=      5-min Rain = 0
KGDS 231240Z 30011KT 03/M03 A2999 RMK A01 T00261029  RH  067%=      5-min Rain = 0
KGDS 231245Z 30010KT 03/M03 A2999 RMK A01 T00251029  RH  068%=      5-min Rain = 0
KGDS 231250Z 29010KT 02/M03 A2999 RMK A01 T00211030  RH  069%=      5-min Rain = 0
KGDS 231255Z 30010KT 02/M03 A2999 RMK A01 T00191029  RH  071%=      5-min Rain = 0
KGDS 231300Z 29010KT 02/M03 A2999 RMK A01 T00201030  RH  070%=      5-min Rain = 0
KGDS 231305Z 30011KT 02/M03 A2999 RMK A01 T00221029  RH  069%=      5-min Rain = 0
KGDS 231310Z 29010KT 02/M03 A2999 RMK A01 T00241029  RH  069%=      5-min Rain = 0
KGDS 231315Z 27007KT 02/M03 A2999 RMK A01 T00201029  RH  070%=      5-min Rain = 0
KGDS 231320Z 25006KT 02/M03 A30 RMK A01 T00151033  RH  070%=      5-min Rain = 0
KGDS 231325Z 24006KT 00/04 A30 RMK A01 T00-00-38  RH  076%=      5-min Rain = 0
KGDS 231330Z 24006KT M02/M04 A30 RMK A01 T10161042  RH  082%=      5-min Rain = 0
KGDS 231335Z 25006KT M02/M04 A30 RMK A01 T10161038  RH  085%=      5-min Rain = 0
KGDS 231340Z 24006KT M01/M04 A2999 RMK A01 T10141036  RH  086%=      5-min Rain = 0
KGDS 231345Z 25006KT M01/M03 A2999 RMK A01 T10111033  RH  085%=      5-min Rain = 0
KGDS 231350Z 24006KT M01/M03 A2999 RMK A01 T10071030  RH  084%=      5-min Rain = 0
KGDS 231355Z 25006KT M00/M03 A2999 RMK A01 T10021028  RH  083%=      5-min Rain = 0
KGDS 231400Z 25006KT 00/M03 A2999 RMK A01 T00011027  RH  082%=      5-min Rain = 0
KGDS 231405Z 26005KT 01/M02 A2999 RMK A01 T00051024  RH  081%=      5-min Rain = 0
KGDS 231410Z 26005KT 01/M02 A2999 RMK A01 T00111021  RH  080%=      5-min Rain = 0
KGDS 231415Z 27005KT 02/M02 A2999 RMK A01 T00171017  RH  079%=      5-min Rain = 0
KGDS 231420Z 27005KT 03/M01 A2999 RMK A01 T00281014  RH  074%=      5-min Rain = 0
KGDS 231425Z 26004KT 04/M01 A2999 RMK A01 T00371013  RH  070%=      5-min Rain = 0
KGDS 231430Z 26004KT 04/M01 A2999 RMK A01 T00441010  RH  068%=      5-min Rain = 0
KGDS 231435Z 27004KT 05/M01 A2999 RMK A01 T00521012  RH  064%=      5-min Rain = 0
KGDS 231440Z 27004KT 06/M01 A2999 RMK A01 T00571011  RH  062%=      5-min Rain = 0
KGDS 231445Z 27003KT 06/M01 A2998 RMK A01 T00621009  RH  061%=      5-min Rain = 0
KGDS 231450Z 28003KT 07/M01 A2998 RMK A01 T00661009  RH  059%=      5-min Rain = 0
KGDS 231455Z 29003KT 07/M01 A2998 RMK A01 T00701007  RH  059%=      5-min Rain = 0
KGDS 231500Z 29003KT 08/M01 A2998 RMK A01 T00751005  RH  058%=      5-min Rain = 0
KGDS 231505Z 31002KT 08/M00 A2998 RMK A01 T00791002  RH  057%=      5-min Rain = 0
KGDS 231510Z 32002KT 09/00 A2998 RMK A01 T00870004  RH  057%=      5-min Rain = 0
KGDS 231515Z 30002KT 09/00 A2998 RMK A01 T00930004  RH  054%=      5-min Rain = 0
KGDS 231520Z 28002KT 10/00 A2998 RMK A01 T00950003  RH  053%=      5-min Rain = 0
KGDS 231525Z 28003KT 10/00 A2998 RMK A01 T00990002  RH  052%=      5-min Rain = 0
KGDS 231530Z 27003KT 10/00 A2998 RMK A01 T01040004  RH  051%=      5-min Rain = 0
KGDS 231535Z 26003KT 11/01 A2998 RMK A01 T01090005  RH  049%=      5-min Rain = 0
KGDS 231540Z 26003KT 11/00 A2998 RMK A01 T01120002  RH  047%=      5-min Rain = 0
KGDS 231545Z 27003KT 12/M00 A2998 RMK A01 T01161002  RH  044%=      5-min Rain = 0
KGDS 231550Z 25002KT 12/00 A2998 RMK A01 T01210003  RH  045%=      5-min Rain = 0
KGDS 231555Z 21003KT 12/01 A2998 RMK A01 T01240007  RH  045%=      5-min Rain = 0
KGDS 231600Z 21005KT 13/01 A2998 RMK A01 T01270006  RH  044%=      5-min Rain = 0
KGDS 231605Z 22004KT 13/01 A2998 RMK A01 T01300005  RH  043%=      5-min Rain = 0
KGDS 231610Z 22003KT 13/00 A2997 RMK A01 T01330002  RH  041%=      5-min Rain = 0
KGDS 231615Z 22003KT 14/00 A2997 RMK A01 T01360002  RH  040%=      5-min Rain = 0
KGDS 231620Z 20002KT 14/01 A2997 RMK A01 T01400014  RH  043%=      5-min Rain = 0
KGDS 231625Z 20003KT 14/01 A2996 RMK A01 T01430010  RH  041%=      5-min Rain = 0
KGDS 231630Z 20003KT 15/00 A2996 RMK A01 T01450003  RH  038%=      5-min Rain = 0
KGDS 231635Z 21002KT 15/00 A2996 RMK A01 T01470000  RH  037%=      5-min Rain = 0
KGDS 231640Z 20002KT 15/00 A2996 RMK A01 T01530003  RH  036%=      5-min Rain = 0
KGDS 231645Z 21002KT 15/M01 A2995 RMK A01 T01541009  RH  033%=      5-min Rain = 0
KGDS 231650Z 19003KT 16/M01 A2995 RMK A01 T01571010  RH  032%=      5-min Rain = 0
KGDS 231655Z 19003KT 16/00 A2995 RMK A01 T016000-0  RH  034%=      5-min Rain = 0
KGDS 231700Z 19004KT 16/M01 A2994 RMK A01 T01621011  RH  031%=      5-min Rain = 0
KGDS 231705Z 20004KT 16/M02 A2994 RMK A01 T01641017  RH  029%=      5-min Rain = 0
KGDS 231710Z 19004KT 16/M02 A2994 RMK A01 T01631021  RH  029%=      5-min Rain = 0
KGDS 231715Z 16005KT 17/M02 A2994 RMK A01 T01671015  RH  029%=      5-min Rain = 0
KGDS 231720Z 19005KT 17/M01 A2994 RMK A01 T01721009  RH  030%=      5-min Rain = 0
KGDS 231725Z 18004KT 17/M01 A2993 RMK A01 T01701011  RH  029%=      5-min Rain = 0
KGDS 231730Z 19005KT 18/M01 A2993 RMK A01 T01761006  RH  029%=      5-min Rain = 0
KGDS 231735Z 18006KT 18/M01 A2992 RMK A01 T01801008  RH  028%=      5-min Rain = 0
KGDS 231740Z 19007KT 18/M01 A2992 RMK A01 T01841008  RH  027%=      5-min Rain = 0
KGDS 231745Z 18007KT 18/M02 A2991 RMK A01 T01831017  RH  026%=      5-min Rain = 0
KGDS 231750Z 18007KT 19/M02 A2991 RMK A01 T01861016  RH  026%=      5-min Rain = 0
KGDS 231755Z 19007KT 19/M02 A2991 RMK A01 T01901018  RH  025%=      5-min Rain = 0
KGDS 231800Z 18007KT 19/M01 A2991 RMK A01 T01911013  RH  025%=      5-min Rain = 0
KGDS 231805Z 19008G13KT 19/M01 A299 RMK A01 T01891010  RH  026%=      5-min Rain = 0
KGDS 231810Z 20007KT 19/M01 A299 RMK A01 T01921008  RH  026%=      5-min Rain = 0
KGDS 231815Z 19008KT 20/M01 A2989 RMK A01 T01961009  RH  025%=      5-min Rain = 0
KGDS 231820Z 18007G13KT 20/M01 A2989 RMK A01 T01991007  RH  025%=      5-min Rain = 0
KGDS 231825Z 18010KT 20/M01 A2989 RMK A01 T02021007  RH  025%=      5-min Rain = 0
KGDS 231830Z 18009KT 20/M01 A2988 RMK A01 T02041009  RH  024%=      5-min Rain = 0
KGDS 231835Z 18010KT 21/M01 A2988 RMK A01 T02081008  RH  024%=      5-min Rain = 0
KGDS 231840Z 18008KT 21/M01 A2987 RMK A01 T02081013  RH  023%=      5-min Rain = 0
KGDS 231845Z 19012G17KT 21/M02 A2987 RMK A01 T02141016  RH  022%=      5-min Rain = 0
KGDS 231850Z 19014KT 22/M02 A2986 RMK A01 T02171021  RH  020%=      5-min Rain = 0
KGDS 231855Z 20014KT 22/M02 A2985 RMK A01 T02171024  RH  020%=      5-min Rain = 0
KGDS 231900Z 18012KT 22/M02 A2985 RMK A01 T02181020  RH  020%=      5-min Rain = 0
KGDS 231905Z 18012G17KT 22/M02 A2985 RMK A01 T02211015  RH  021%=      5-min Rain = 0
KGDS 231910Z 18013G19KT 22/M01 A2984 RMK A01 T02221013  RH  021%=      5-min Rain = 0
KGDS 231915Z 19014G20KT 23/M01 A2984 RMK A01 T02251013  RH  020%=      5-min Rain = 0
KGDS 231920Z 19014G21KT 23/M01 A2983 RMK A01 T02281014  RH  020%=      5-min Rain = 0
KGDS 231925Z 19018KT 23/M02 A2982 RMK A01 T02291023  RH  019%=      5-min Rain = 0
KGDS 231930Z 20017G22KT 23/M02 A2982 RMK A01 T02321018  RH  019%=      5-min Rain = 0
KGDS 231935Z 20017G22KT 23/M02 A2982 RMK A01 T02331017  RH  019%=      5-min Rain = 0
KGDS 231940Z 21017G22KT 23/M02 A2981 RMK A01 T02321019  RH  019%=      5-min Rain = 0
KGDS 231945Z 19015G21KT 24/M02 A298 RMK A01 T02351017  RH  019%=      5-min Rain = 0
KGDS 231950Z 19019G27KT 24/M02 A298 RMK A01 T02411017  RH  018%=      5-min Rain = 0
KGDS 231955Z 21017G23KT 24/M02 A2979 RMK A01 T02431020  RH  018%=      5-min Rain = 0
KGDS 232000Z 20016G22KT 25/M02 A2979 RMK A01 T02461018  RH  018%=      5-min Rain = 0
KGDS 232005Z 20016G21KT 25/M02 A2978 RMK A01 T02491016  RH  017%=      5-min Rain = 0
KGDS 232010Z 19018G24KT 25/M02 A2977 RMK A01 T02521019  RH  017%=      5-min Rain = 0
KGDS 232015Z 21022G30KT 26/M03 A2976 RMK A01 T02581028  RH  015%=      5-min Rain = 0
KGDS 232020Z 22021G26KT 26/M03 A2976 RMK A01 T02621033  RH  014%=      5-min Rain = 0
KGDS 232025Z 21019G27KT 27/M03 A2976 RMK A01 T02651031  RH  014%=      5-min Rain = 0
KGDS 232030Z 23019G24KT 27/M03 A2976 RMK A01 T02671034  RH  014%=      5-min Rain = 0
KGDS 232035Z 22020G25KT 26/M04 A2975 RMK A01 T02631037  RH  014%=      5-min Rain = 0
KGDS 232040Z 23019G24KT 26/M04 A2975 RMK A01 T02631037  RH  014%=      5-min Rain = 0
KGDS 232045Z 22021KT 27/M03 A2975 RMK A01 T02651034  RH  014%=      5-min Rain = 0
KGDS 232050Z 21022G28KT 26/M03 A2974 RMK A01 T02641033  RH  014%=      5-min Rain = 0
KGDS 232055Z 22023KT 27/M04 A2974 RMK A01 T02651036  RH  014%=      5-min Rain = 0
KGDS 232100Z 22022G27KT 27/M04 A2974 RMK A01 T02651035  RH  014%=      5-min Rain = 0
KGDS 232105Z 21021G28KT 26/M04 A2973 RMK A01 T02641036  RH  014%=      5-min Rain = 0
KGDS 232110Z 22023G28KT 27/M04 A2973 RMK A01 T02651037  RH  014%=      5-min Rain = 0
KGDS 232115Z 22021G29KT 26/M04 A2973 RMK A01 T02641039  RH  013%=      5-min Rain = 0
KGDS 232120Z 21021G28KT 27/M04 A2973 RMK A01 T02651039  RH  013%=      5-min Rain = 0
KGDS 232125Z 22025G31KT 27/M04 A2972 RMK A01 T02661043  RH  013%=      5-min Rain = 0
KGDS 232130Z 22024G31KT 27/M04 A2972 RMK A01 T02671041  RH  013%=      5-min Rain = 0
KGDS 232135Z 22023G29KT 27/M04 A2972 RMK A01 T02671041  RH  013%=      5-min Rain = 0
KGDS 232140Z 21021G26KT 27/M04 A2972 RMK A01 T02681035  RH  013%=      5-min Rain = 0
KGDS 232145Z 21022G28KT 27/M03 A2971 RMK A01 T02671033  RH  014%=      5-min Rain = 0
KGDS 232150Z 21021G31KT 27/M03 A2971 RMK A01 T02691032  RH  014%=      5-min Rain = 0
KGDS 232155Z 21023G29KT 27/M04 A2971 RMK A01 T02671036  RH  013%=      5-min Rain = 0
KGDS 232200Z 20024G29KT 27/M04 A2971 RMK A01 T02651038  RH  013%=      5-min Rain = 0
KGDS 232205Z 20023G30KT 27/M04 A2971 RMK A01 T02651039  RH  013%=      5-min Rain = 0
KGDS 232210Z 21022G29KT 27/M04 A2971 RMK A01 T02671039  RH  013%=      5-min Rain = 0
KGDS 232215Z 21022G31KT 27/M04 A2971 RMK A01 T02661040  RH  013%=      5-min Rain = 0
KGDS 232220Z 21023G28KT 27/M04 A297 RMK A01 T02661042  RH  013%=      5-min Rain = 0
KGDS 232225Z 21021G26KT 27/M04 A297 RMK A01 T02671042  RH  013%=      5-min Rain = 0
KGDS 232230Z 21021G26KT 27/M05 A297 RMK A01 T02671045  RH  013%=      5-min Rain = 0
KGDS 232235Z 21020G27KT 27/M05 A297 RMK A01 T02671046  RH  012%=      5-min Rain = 0
KGDS 232240Z 21022G28KT 27/M05 A2969 RMK A01 T02681046  RH  012%=      5-min Rain = 0
KGDS 232245Z 21024KT 27/M05 A2969 RMK A01 T02671052  RH  012%=      5-min Rain = 0
KGDS 232250Z 20021G29KT 27/M05 A2969 RMK A01 T02671048  RH  012%=      5-min Rain = 0
KGDS 232255Z 20021G29KT 27/M05 A2969 RMK A01 T02651049  RH  012%=      5-min Rain = 0
KGDS 232300Z 20017G24KT 27/M04 A2969 RMK A01 T02651043  RH  013%=      5-min Rain = 0
KGDS 232305Z 21018G24KT 27/M04 A2968 RMK A01 T02651043  RH  013%=      5-min Rain = 0
KGDS 232310Z 21021G27KT 26/M05 A2968 RMK A01 T02631047  RH  013%=      5-min Rain = 0
KGDS 232315Z 20020G25KT 26/M05 A2968 RMK A01 T02601045  RH  013%=      5-min Rain = 0
KGDS 232320Z 20023KT 26/M05 A2968 RMK A01 T02591050  RH  013%=      5-min Rain = 0
KGDS 232325Z 20022G27KT 26/M05 A2968 RMK A01 T02591053  RH  012%=      5-min Rain = 0
KGDS 232330Z 20018G25KT 26/M05 A2967 RMK A01 T02581048  RH  013%=      5-min Rain = 0
KGDS 232335Z 19015G20KT 26/M04 A2968 RMK A01 T02551042  RH  014%=      5-min Rain = 0
KGDS 232340Z 19016G22KT 25/M04 A2968 RMK A01 T02531044  RH  014%=      5-min Rain = 0
KGDS 232345Z 19016KT 25/M05 A2967 RMK A01 T02521046  RH  014%=      5-min Rain = 0
KGDS 232350Z 19016G21KT 25/M05 A2967 RMK A01 T02501047  RH  014%=      5-min Rain = 0
KGDS 232355Z 20016KT 25/M05 A2967 RMK A01 T02471045  RH  014%=      5-min Rain = 0
KGDS 240000Z 19016G21KT 24/M05 A2967 RMK A01 T02441046  RH  014%=      5-min Rain = 0
KGDS 240005Z 19015G20KT 24/M05 A2967 RMK A01 T02411046  RH  015%=      5-min Rain = 0
KGDS 240010Z 19013KT 24/M04 A2967 RMK A01 T02351042  RH  016%=      5-min Rain = 0
KGDS 240015Z 19014KT 23/M04 A2967 RMK A01 T02321042  RH  016%=      5-min Rain = 0
KGDS 240020Z 19014KT 23/M04 A2967 RMK A01 T02291042  RH  016%=      5-min Rain = 0
KGDS 240025Z 19014KT 23/M04 A2967 RMK A01 T02271043  RH  016%=      5-min Rain = 0
KGDS 240030Z 19013KT 22/M04 A2967 RMK A01 T02201040  RH  017%=      5-min Rain = 0
KGDS 240035Z 19013KT 21/M04 A2967 RMK A01 T02141038  RH  018%=      5-min Rain = 0
KGDS 240040Z 19013KT 21/M04 A2967 RMK A01 T02101038  RH  019%=      5-min Rain = 0
KGDS 240045Z 19013KT 21/M04 A2967 RMK A01 T02071037  RH  019%=      5-min Rain = 0
KGDS 240050Z 19013KT 20/M04 A2967 RMK A01 T02031036  RH  020%=      5-min Rain = 0
KGDS 240055Z 19011KT 20/M04 A2968 RMK A01 T01991035  RH  021%=      5-min Rain = 0
KGDS 240100Z 19011KT 19/M03 A2968 RMK A01 T01931034  RH  021%=      5-min Rain = 0
KGDS 240105Z 19011KT 19/M03 A2968 RMK A01 T01901033  RH  022%=      5-min Rain = 0
KGDS 240110Z 19012KT 19/M03 A2968 RMK A01 T01881033  RH  022%=      5-min Rain = 0
KGDS 240115Z 19012KT 19/M03 A2968 RMK A01 T01851033  RH  023%=      5-min Rain = 0
KGDS 240120Z 19013KT 18/M03 A2968 RMK A01 T01841034  RH  023%=      5-min Rain = 0
KGDS 240125Z 19013KT 19/M04 A2968 RMK A01 T01871037  RH  022%=      5-min Rain = 0
KGDS 240130Z 19014KT 19/M04 A2968 RMK A01 T01891039  RH  021%=      5-min Rain = 0
KGDS 240135Z 19014KT 19/M04 A2968 RMK A01 T01891041  RH  021%=      5-min Rain = 0
KGDS 240140Z 19014KT 19/M04 A2968 RMK A01 T01871042  RH  021%=      5-min Rain = 0
KGDS 240145Z 19014KT 19/M04 A2968 RMK A01 T01881043  RH  021%=      5-min Rain = 0
KGDS 240150Z 19014KT 19/M05 A2968 RMK A01 T01871045  RH  021%=      5-min Rain = 0
KGDS 240155Z 19015G20KT 19/M05 A2968 RMK A01 T01901048  RH  020%=      5-min Rain = 0
KGDS 240200Z 19014KT 19/M05 A2968 RMK A01 T01901049  RH  019%=      5-min Rain = 0
KGDS 240205Z 19014KT 19/M05 A2968 RMK A01 T01881049  RH  020%=      5-min Rain = 0
KGDS 240210Z 19014KT 19/M05 A2968 RMK A01 T01851049  RH  020%=      5-min Rain = 0
KGDS 240215Z 19013KT 18/M05 A2968 RMK A01 T01831049  RH  020%=      5-min Rain = 0
KGDS 240220Z 19013KT 18/M05 A2968 RMK A01 T01831050  RH  020%=      5-min Rain = 0
KGDS 240225Z 19014KT 18/M05 A2968 RMK A01 T01841051  RH  020%=      5-min Rain = 0
KGDS 240230Z 20014KT 18/M05 A2968 RMK A01 T01831051  RH  020%=      5-min Rain = 0
KGDS 240235Z 19014KT 18/M05 A2968 RMK A01 T01821052  RH  020%=      5-min Rain = 0
KGDS 240240Z 20015G20KT 19/M05 A2968 RMK A01 T01851054  RH  019%=      5-min Rain = 0
KGDS 240245Z 20017G23KT 19/M06 A2968 RMK A01 T01901057  RH  018%=      5-min Rain = 0
KGDS 240250Z 20017G25KT 19/M06 A2968 RMK A01 T01941058  RH  018%=      5-min Rain = 0
KGDS 240255Z 20017KT 19/M06 A2967 RMK A01 T01931058  RH  018%=      5-min Rain = 0
KGDS 240300Z 20017KT 19/M06 A2967 RMK A01 T01931058  RH  018%=      5-min Rain = 0
KGDS 240305Z 20017KT 19/M06 A2968 RMK A01 T01921059  RH  018%=      5-min Rain = 0
KGDS 240310Z 20016KT 19/M06 A2968 RMK A01 T01901058  RH  018%=      5-min Rain = 0
KGDS 240315Z 21016KT 19/M06 A2968 RMK A01 T01891058  RH  018%=      5-min Rain = 0
KGDS 240320Z 21017KT 19/M06 A2968 RMK A01 T01881058  RH  018%=      5-min Rain = 0
KGDS 240325Z 21017KT 19/M06 A2969 RMK A01 T01881059  RH  018%=      5-min Rain = 0
KGDS 240330Z 21016KT 18/M06 A2969 RMK A01 T01841057  RH  019%=      5-min Rain = 0
KGDS 240335Z 21016KT 18/M06 A2969 RMK A01 T01801057  RH  019%=      5-min Rain = 0
KGDS 240340Z 21015KT 18/M06 A2969 RMK A01 T01761056  RH  020%=      5-min Rain = 0
KGDS 240345Z 22014KT 17/M06 A2969 RMK A01 T01721056  RH  021%=      5-min Rain = 0
KGDS 240350Z 22014KT 17/M06 A2969 RMK A01 T01701055  RH  021%=      5-min Rain = 0
KGDS 240355Z 22016KT 17/M06 A297 RMK A01 T01681055  RH  021%=      5-min Rain = 0
KGDS 240400Z 22017KT 17/M06 A297 RMK A01 T01691056  RH  021%=      5-min Rain = 0
KGDS 240405Z 22017KT 17/M06 A297 RMK A01 T01711056  RH  021%=      5-min Rain = 0
KGDS 240410Z 22016G21KT 17/M06 A297 RMK A01 T01671055  RH  021%=      5-min Rain = 0
KGDS 240415Z 22016KT 17/M06 A2971 RMK A01 T01661055  RH  022%=      5-min Rain = 0
KGDS 240420Z 21017G22KT 17/M06 A2971 RMK A01 T01661055  RH  022%=      5-min Rain = 0
KGDS 240425Z 21017KT 17/M05 A2971 RMK A01 T01661054  RH  022%=      5-min Rain = 0
KGDS 240430Z 21017KT 16/M05 A2971 RMK A01 T01621053  RH  022%=      5-min Rain = 0
KGDS 240435Z 22016KT 16/M05 A2971 RMK A01 T01591052  RH  023%=      5-min Rain = 0
KGDS 240440Z 22015KT 16/M05 A2971 RMK A01 T01561051  RH  024%=      5-min Rain = 0
KGDS 240445Z 21015KT 15/M05 A2972 RMK A01 T01541050  RH  024%=      5-min Rain = 0
KGDS 240450Z 21016KT 15/M05 A2972 RMK A01 T01521050  RH  025%=      5-min Rain = 0
KGDS 240455Z 21016KT 15/M05 A2972 RMK A01 T01521050  RH  025%=      5-min Rain = 0
KGDS 240500Z 21015KT 15/M05 A2972 RMK A01 T01501049  RH  025%=      5-min Rain = 0
KGDS 240505Z 22014KT 15/M05 A2973 RMK A01 T01491049  RH  025%=      5-min Rain = 0
KGDS 240510Z 23010G15KT 15/M05 A2974 RMK A01 T01491048  RH  025%=      5-min Rain = 0
KGDS 240515Z 23011KT 14/M05 A2974 RMK A01 T01441047  RH  026%=      5-min Rain = 0
KGDS 240520Z 22013KT 15/M05 A2974 RMK A01 T01481048  RH  026%=      5-min Rain = 0
KGDS 240525Z 22012KT 14/M05 A2974 RMK A01 T01441047  RH  027%=      5-min Rain = 0
KGDS 240530Z 22012KT 14/M05 A2974 RMK A01 T01401045  RH  028%=      5-min Rain = 0
KGDS 240535Z 21012KT 14/M04 A2974 RMK A01 T01371043  RH  029%=      5-min Rain = 0
KGDS 240540Z 21013KT 13/M04 A2973 RMK A01 T01341041  RH  030%=      5-min Rain = 0
KGDS 240545Z 21014KT 13/M04 A2973 RMK A01 T01301039  RH  031%=      5-min Rain = 0
KGDS 240550Z 20013KT 13/M04 A2973 RMK A01 T01261038  RH  032%=      5-min Rain = 0
KGDS 240555Z 20012KT 12/M04 A2973 RMK A01 T01191035  RH  034%=      5-min Rain = 0

Page generated in 0.0085 seconds.